Time;durP1;ratioP1;P1;durP2;ratioP2;P2;SDS_P1;SDS_P2;PMS_P1;PMS_P2;Temp;Humidity;BMP_temperature;BMP_pressure;BME280_temperature;BME280_humidity;BME280_pressure;Samples;Min_cycle;Max_cycle;Signal;HPM_P1;HPM_P2
2021/11/19 00:01:29;;;;;;;11.68;5.22;;;;;;;14.71;52.95;102523.75;5081456;28;20087;-78
2021/11/19 00:03:56;;;;;;;9.68;5.50;;;;;;;14.70;52.80;102516.50;5070830;28;20052;-79
2021/11/19 00:06:23;;;;;;;10.77;5.55;;;;;;;14.71;52.76;102517.38;5088040;28;20044;-79
2021/11/19 00:08:50;;;;;;;11.57;5.95;;;;;;;14.71;52.43;102517.38;5085165;28;20059;-79
2021/11/19 00:11:21;;;;;;;10.52;6.20;;;;;;;14.73;52.31;102515.44;5077564;28;20052;-79
2021/11/19 00:13:49;;;;;;;10.55;5.45;;;;;;;14.72;52.51;102528.25;5082094;28;20388;-79
2021/11/19 00:16:17;;;;;;;12.38;5.85;;;;;;;14.72;52.66;102525.50;5083795;28;20439;-80
2021/11/19 00:18:45;;;;;;;9.93;6.05;;;;;;;14.73;52.43;102529.13;5089138;28;20059;-80
2021/11/19 00:21:12;;;;;;;11.90;5.82;;;;;;;14.75;52.41;102524.44;5087058;28;20101;-78
2021/11/19 00:23:43;;;;;;;11.25;5.90;;;;;;;14.73;52.70;102519.06;5087503;28;20477;-79
2021/11/19 00:26:10;;;;;;;10.02;5.78;;;;;;;14.74;52.33;102525.41;5091288;28;20063;-78
2021/11/19 00:28:38;;;;;;;11.13;5.78;;;;;;;14.74;52.47;102517.22;5070760;28;20064;-79
2021/11/19 00:31:06;;;;;;;10.05;5.45;;;;;;;14.74;52.70;102518.06;5086319;28;20049;-79
2021/11/19 00:33:37;;;;;;;9.82;5.63;;;;;;;14.75;52.91;102527.16;5068840;28;20410;-80
2021/11/19 00:36:07;;;;;;;12.35;5.97;;;;;;;14.75;52.61;102508.91;5087925;28;20240;-77
2021/11/19 00:38:36;;;;;;;12.80;5.85;;;;;;;14.76;52.75;102510.66;5089425;28;20486;-79
2021/11/19 00:41:05;;;;;;;11.98;6.00;;;;;;;14.77;52.54;102511.56;5091691;28;20060;-80
2021/11/19 00:43:33;;;;;;;9.65;5.78;;;;;;;14.75;52.53;102514.38;5089958;28;20105;-77
2021/11/19 00:46:00;;;;;;;10.80;6.07;;;;;;;14.76;52.77;102502.47;5088283;28;20109;-77
2021/11/19 00:48:30;;;;;;;10.73;5.47;;;;;;;14.78;52.49;102510.59;5086746;28;20515;-78
2021/11/19 00:51:03;;;;;;;10.40;5.88;;;;;;;14.77;52.62;102504.22;5071678;28;20125;-78
2021/11/19 00:53:31;;;;;;;13.32;6.72;;;;;;;14.76;52.55;102510.66;5063653;28;20459;-78
2021/11/19 00:55:57;;;;;;;10.15;6.45;;;;;;;14.76;52.45;102505.19;5097382;28;20067;-78
2021/11/19 00:58:24;;;;;;;12.45;6.60;;;;;;;14.78;52.62;102516.94;5077916;28;20083;-78
2021/11/19 01:00:59;;;;;;;10.18;6.35;;;;;;;14.80;52.66;102511.38;5072219;28;20043;-78
2021/11/19 01:03:26;;;;;;;12.10;6.45;;;;;;;14.77;52.31;102514.28;5092763;28;20087;-78
2021/11/19 01:05:55;;;;;;;9.85;6.13;;;;;;;14.78;52.95;102516.94;5090494;28;20067;-78
2021/11/19 01:08:23;;;;;;;13.40;6.93;;;;;;;14.79;52.67;102523.28;5074112;28;20097;-78
2021/11/19 01:10:52;;;;;;;18.83;7.32;;;;;;;14.78;52.49;102527.00;5086921;28;20506;-78
2021/11/19 01:13:19;;;;;;;11.52;6.90;;;;;;;14.79;53.00;102523.28;5092365;28;20063;-78
2021/11/19 01:15:53;;;;;;;10.95;6.13;;;;;;;14.80;53.01;102527.78;5086056;28;20109;-78
2021/11/19 01:18:29;;;;;;;11.95;6.65;;;;;;;14.80;53.12;102528.69;5076284;28;20048;-78
2021/11/19 01:20:57;;;;;;;10.60;6.32;;;;;;;14.79;52.92;102535.13;5090788;28;20113;-77
2021/11/19 01:23:26;;;;;;;11.20;6.28;;;;;;;14.81;52.60;102533.19;5089966;28;20086;-77
2021/11/19 01:26:00;;;;;;;11.45;6.65;;;;;;;14.82;52.67;102526.72;5072161;28;20136;-77
2021/11/19 01:28:28;;;;;;;11.65;7.07;;;;;;;14.79;52.73;102532.38;5091606;28;20085;-78
2021/11/19 01:31:01;;;;;;;11.77;6.63;;;;;;;14.82;52.85;102536.81;5082570;28;20636;-78
2021/11/19 01:33:28;;;;;;;10.80;6.75;;;;;;;14.80;52.98;102534.16;5069825;28;20048;-78
2021/11/19 01:35:56;;;;;;;12.40;6.40;;;;;;;14.80;53.00;102531.41;5083182;28;20052;-78
2021/11/19 01:38:22;;;;;;;11.73;6.53;;;;;;;14.81;52.77;102538.66;5061961;28;20094;-78
2021/11/19 01:40:54;;;;;;;10.38;6.78;;;;;;;14.83;52.89;102530.31;5089147;28;20051;-78
2021/11/19 01:43:22;;;;;;;13.43;6.57;;;;;;;14.82;52.90;102542.25;5071321;28;20051;-78
2021/11/19 01:45:52;;;;;;;11.65;6.47;;;;;;;14.84;53.04;102529.38;5088389;28;20112;-78
2021/11/19 01:48:25;;;;;;;11.95;6.15;;;;;;;14.84;53.30;102535.72;5066076;28;20072;-78
2021/11/19 01:51:00;;;;;;;10.15;6.30;;;;;;;14.85;53.13;102536.59;5063470;28;20051;-78
2021/11/19 01:53:42;;;;;;;11.88;6.28;;;;;;;14.85;52.89;102537.47;5084560;28;20052;-78
2021/11/19 01:56:17;;;;;;;10.65;6.15;;;;;;;14.85;53.12;102533.88;5082903;28;20517;-78
2021/11/19 01:58:55;;;;;;;13.50;7.00;;;;;;;14.87;53.24;102531.94;5082516;28;20494;-78
2021/11/19 02:01:44;;;;;;;10.88;5.95;;;;;;;14.88;52.96;102546.50;5089086;28;20117;-78
2021/11/19 02:04:15;;;;;;;11.75;6.18;;;;;;;14.85;52.95;102548.41;5088019;28;20052;-78
2021/11/19 02:06:54;;;;;;;12.25;6.60;;;;;;;14.88;53.06;102536.44;5086611;28;20040;-78
2021/11/19 02:09:40;;;;;;;11.75;6.95;;;;;;;14.89;53.28;102545.53;5067857;28;20105;-78
2021/11/19 02:12:16;;;;;;;11.20;6.40;;;;;;;14.88;52.96;102539.16;5078256;28;20127;-78
2021/11/19 02:15:10;;;;;;;12.75;6.50;;;;;;;14.89;53.34;102551.00;5087648;28;20056;-78
2021/11/19 02:17:38;;;;;;;13.77;7.13;;;;;;;14.85;53.32;102542.94;5084956;28;20063;-78
2021/11/19 02:20:09;;;;;;;15.32;7.43;;;;;;;14.87;52.86;102545.59;5087425;28;20140;-78
2021/11/19 02:22:42;;;;;;;12.95;7.30;;;;;;;14.87;53.15;102545.59;5089415;28;20101;-78
2021/11/19 02:25:13;;;;;;;13.10;6.82;;;;;;;14.84;52.99;102538.44;5093797;28;20509;-78
2021/11/19 02:27:57;;;;;;;10.68;6.70;;;;;;;14.86;53.19;102530.16;5098115;28;20185;-78
2021/11/19 02:30:33;;;;;;;14.13;7.03;;;;;;;14.85;53.38;102534.75;5086007;28;20052;-78
2021/11/19 02:33:07;;;;;;;12.68;7.22;;;;;;;14.87;53.14;102533.78;5068718;28;20347;-78
2021/11/19 02:35:44;;;;;;;12.00;7.35;;;;;;;14.87;53.18;102537.41;5079574;28;20079;-78
2021/11/19 02:38:12;;;;;;;13.10;7.40;;;;;;;14.87;53.14;102539.25;5090230;28;20051;-78
2021/11/19 02:40:42;;;;;;;11.60;6.60;;;;;;;14.86;53.23;102532.91;5087078;28;20051;-78
2021/11/19 02:43:16;;;;;;;11.88;7.03;;;;;;;14.89;53.01;102540.06;5085839;28;20136;-78
2021/11/19 02:45:47;;;;;;;14.32;7.35;;;;;;;14.87;53.21;102541.97;5078651;28;20052;-78
2021/11/19 02:48:17;;;;;;;13.05;7.60;;;;;;;14.87;53.35;102541.97;5071722;28;20055;-78
2021/11/19 02:50:46;;;;;;;12.52;6.95;;;;;;;14.85;53.26;102536.59;5085880;28;20139;-78
2021/11/19 02:53:13;;;;;;;11.27;7.43;;;;;;;14.85;53.32;102529.28;5089815;28;20048;-78
2021/11/19 02:55:43;;;;;;;12.80;6.72;;;;;;;14.85;53.22;102526.53;5090449;28;20216;-78
2021/11/19 02:58:15;;;;;;;10.82;6.68;;;;;;;14.85;53.52;102529.28;5092220;28;20044;-78
2021/11/19 03:00:49;;;;;;;12.05;6.80;;;;;;;14.85;53.63;102526.53;5070477;28;20056;-78
2021/11/19 03:03:15;;;;;;;11.50;5.93;;;;;;;14.85;53.36;102526.53;5086170;28;20408;-78
2021/11/19 03:05:43;;;;;;;10.65;6.78;;;;;;;14.87;53.46;102531.03;5086746;28;20488;-78
2021/11/19 03:08:10;;;;;;;13.00;6.28;;;;;;;14.87;53.50;102522.84;5087083;28;20081;-78
2021/11/19 03:10:42;;;;;;;11.98;7.28;;;;;;;14.87;53.49;102520.09;5076224;28;20061;-78
2021/11/19 03:13:10;;;;;;;11.60;7.25;;;;;;;14.87;53.53;102525.56;5087100;28;20105;-78
2021/11/19 03:15:42;;;;;;;11.70;6.78;;;;;;;14.88;53.52;102528.22;5087136;28;20134;-78
2021/11/19 03:18:11;;;;;;;10.75;6.68;;;;;;;14.84;53.55;102522.03;5074436;28;20119;-78
2021/11/19 03:20:38;;;;;;;10.55;6.28;;;;;;;14.88;53.70;102516.41;5069685;28;20453;-78
2021/11/19 03:23:05;;;;;;;11.75;6.68;;;;;;;14.87;53.43;102507.31;5070579;28;20581;-78
2021/11/19 03:25:37;;;;;;;14.77;7.15;;;;;;;14.91;53.94;102510.75;5089442;28;20150;-78
2021/11/19 03:28:14;;;;;;;11.15;7.07;;;;;;;14.89;53.67;102510.84;5103656;28;20048;-78
2021/11/19 03:30:43;;;;;;;12.50;6.72;;;;;;;14.90;53.82;102511.75;5093283;28;20104;-78
2021/11/19 03:33:13;;;;;;;12.40;7.32;;;;;;;14.90;53.67;102511.75;5076097;28;20234;-78
2021/11/19 03:35:40;;;;;;;11.52;7.15;;;;;;;14.89;53.93;102504.50;5082710;28;20109;-78
2021/11/19 03:38:07;;;;;;;12.68;7.53;;;;;;;14.91;53.71;102505.25;5073198;28;20048;-78
2021/11/19 03:40:37;;;;;;;11.35;7.03;;;;;;;14.91;53.63;102510.75;5087718;28;20074;-78
2021/11/19 03:43:21;;;;;;;12.63;7.13;;;;;;;14.91;53.97;102497.06;5066724;28;20410;-77
2021/11/19 03:45:53;;;;;;;10.73;6.32;;;;;;;14.91;53.82;102506.16;5052538;28;20048;-78
2021/11/19 03:48:21;;;;;;;10.13;6.47;;;;;;;14.90;54.02;102503.53;5071255;28;20056;-78
2021/11/19 03:50:52;;;;;;;10.05;6.10;;;;;;;14.93;53.88;102498.75;5082997;28;20091;-78
2021/11/19 03:53:21;;;;;;;11.07;6.97;;;;;;;14.93;54.01;102506.06;5065598;28;20339;-78
2021/11/19 03:55:49;;;;;;;10.32;6.72;;;;;;;14.93;53.53;102509.69;5076409;28;20497;-78
2021/11/19 03:58:21;;;;;;;10.70;6.30;;;;;;;14.94;54.06;102505.09;5084662;28;20110;-78
2021/11/19 04:00:56;;;;;;;9.65;6.10;;;;;;;14.94;54.06;102499.63;5087353;28;20174;-78
2021/11/19 04:03:24;;;;;;;11.05;6.80;;;;;;;14.94;53.83;102505.09;5083607;28;20052;-78
2021/11/19 04:05:51;;;;;;;11.52;6.88;;;;;;;14.94;53.78;102507.84;5081566;28;20055;-78
2021/11/19 04:08:19;;;;;;;10.98;6.57;;;;;;;14.95;53.68;102515.94;5084408;28;20083;-78
2021/11/19 04:10:47;;;;;;;11.45;6.43;;;;;;;14.95;53.77;102515.94;5086228;28;20044;-78
2021/11/19 04:13:14;;;;;;;11.18;6.53;;;;;;;14.95;54.13;102515.06;5076423;28;20102;-78
2021/11/19 04:15:49;;;;;;;10.60;6.50;;;;;;;14.96;54.27;102517.72;5073018;28;20122;-78
2021/11/19 04:18:15;;;;;;;11.55;6.50;;;;;;;14.94;53.96;102522.38;5084162;28;20044;-78
2021/11/19 04:20:43;;;;;;;11.48;7.05;;;;;;;14.95;54.00;102523.28;5084695;28;20132;-78
2021/11/19 04:23:10;;;;;;;9.88;6.28;;;;;;;14.94;54.01;102519.66;5085322;28;20052;-78
2021/11/19 04:25:38;;;;;;;12.35;6.97;;;;;;;14.96;54.06;102516.84;5086361;28;20087;-78
2021/11/19 04:28:06;;;;;;;11.07;6.78;;;;;;;14.95;53.95;102520.53;5075069;28;20052;-77
2021/11/19 04:30:36;;;;;;;11.90;6.40;;;;;;;14.96;54.30;102514.97;5079385;28;20056;-77
2021/11/19 04:33:03;;;;;;;10.68;6.05;;;;;;;14.95;53.99;102521.44;5086164;28;20074;-77
2021/11/19 04:35:30;;;;;;;10.45;5.95;;;;;;;14.96;54.29;102528.66;5085379;28;20056;-78
2021/11/19 04:37:58;;;;;;;10.65;6.97;;;;;;;14.97;54.02;102529.53;5063911;28;20487;-78
2021/11/19 04:40:25;;;;;;;10.27;6.22;;;;;;;14.96;54.13;102528.66;5073384;28;20052;-78
2021/11/19 04:42:51;;;;;;;10.65;5.97;;;;;;;14.96;54.25;102525.03;5089215;28;20056;-78
2021/11/19 04:45:22;;;;;;;10.70;6.43;;;;;;;14.99;54.02;102531.19;5063818;28;20044;-77
2021/11/19 04:47:49;;;;;;;9.82;5.82;;;;;;;14.98;54.18;102528.59;5053534;28;20084;-77
2021/11/19 04:50:18;;;;;;;10.63;6.85;;;;;;;15.01;54.09;102531.13;5065338;28;20101;-78
2021/11/19 04:52:45;;;;;;;11.07;6.88;;;;;;;14.98;53.99;102526.72;5091479;28;20455;-78
2021/11/19 04:55:13;;;;;;;11.88;6.97;;;;;;;15.01;54.28;102528.38;5095097;28;20036;-77
2021/11/19 04:57:40;;;;;;;10.93;6.85;;;;;;;15.01;53.88;102525.63;5077132;28;20044;-78
2021/11/19 05:00:11;;;;;;;10.18;6.32;;;;;;;15.02;54.31;102514.63;5090409;28;20059;-78
2021/11/19 05:02:38;;;;;;;10.38;6.75;;;;;;;15.02;53.90;102521.94;5091956;28;20048;-78
2021/11/19 05:05:06;;;;;;;11.55;6.80;;;;;;;15.02;54.11;102511.00;5073031;28;20494;-78
2021/11/19 05:07:32;;;;;;;10.68;6.40;;;;;;;15.02;53.90;102511.00;5074568;28;20129;-78
2021/11/19 05:09:59;;;;;;;12.32;7.90;;;;;;;15.02;54.39;102514.63;5089501;28;23620;-78
2021/11/19 05:12:36;;;;;;;12.63;6.97;;;;;;;15.05;54.38;102513.56;5090036;28;20444;-78
2021/11/19 05:15:05;;;;;;;11.98;7.00;;;;;;;15.02;54.07;102517.34;5085085;28;20076;-77
2021/11/19 05:17:32;;;;;;;11.98;7.35;;;;;;;15.02;54.41;102520.09;5072744;28;20072;-78
2021/11/19 05:19:59;;;;;;;12.95;7.78;;;;;;;15.03;54.20;102513.66;5071616;28;20051;-78
2021/11/19 05:22:27;;;;;;;11.73;7.25;;;;;;;15.02;54.28;102513.72;5089399;28;20076;-77
2021/11/19 05:24:53;;;;;;;11.93;7.30;;;;;;;15.02;53.98;102511.88;5096596;28;20055;-78
2021/11/19 05:27:21;;;;;;;13.20;7.22;;;;;;;15.03;54.48;102520.97;5084263;28;20117;-78
2021/11/19 05:29:49;;;;;;;11.95;7.50;;;;;;;15.03;54.63;102518.22;5086343;28;20059;-77
2021/11/19 05:32:16;;;;;;;11.88;7.45;;;;;;;15.03;54.25;102510.91;5094243;28;20086;-78
2021/11/19 05:34:43;;;;;;;12.18;7.07;;;;;;;15.03;54.31;102504.56;5089482;28;20060;-78
2021/11/19 05:37:11;;;;;;;11.25;7.03;;;;;;;15.03;54.61;102515.50;5075933;28;20056;-78
2021/11/19 05:39:38;;;;;;;12.35;7.50;;;;;;;15.04;54.68;102523.63;5083828;28;20697;-78
2021/11/19 05:42:05;;;;;;;14.60;8.63;;;;;;;15.04;54.16;102517.28;5093016;28;20077;-78
2021/11/19 05:44:34;;;;;;;12.90;8.00;;;;;;;15.03;54.55;102510.03;5074814;28;20461;-79
2021/11/19 05:47:02;;;;;;;13.15;7.82;;;;;;;15.04;54.30;102507.22;5076203;28;20079;-78
2021/11/19 05:49:28;;;;;;;11.80;7.93;;;;;;;15.03;54.38;102510.91;5094142;28;20052;-78
2021/11/19 05:51:58;;;;;;;14.30;8.35;;;;;;;15.05;54.61;102517.19;5075154;28;20098;-78
2021/11/19 05:54:29;;;;;;;12.43;7.95;;;;;;;15.06;54.50;102507.13;5091281;28;20056;-78
2021/11/19 05:56:56;;;;;;;12.95;7.90;;;;;;;15.05;54.12;102527.25;5103177;28;20089;-78
2021/11/19 05:59:24;;;;;;;14.75;8.70;;;;;;;15.05;54.23;102521.78;5076000;28;20051;-78
2021/11/19 06:01:50;;;;;;;12.52;8.18;;;;;;;15.05;54.53;102517.19;5088368;28;20067;-78
2021/11/19 06:04:17;;;;;;;13.57;7.60;;;;;;;15.04;54.81;102515.41;5072085;28;20084;-77
2021/11/19 06:06:44;;;;;;;13.48;7.47;;;;;;;15.04;54.65;102525.47;5093005;28;20544;-78
2021/11/19 06:09:20;;;;;;;11.98;7.78;;;;;;;15.06;54.82;102521.69;5088905;28;20076;-78
2021/11/19 06:11:52;;;;;;;13.77;8.32;;;;;;;15.08;54.83;102521.56;5064615;28;20094;-78
2021/11/19 06:14:27;;;;;;;14.88;7.93;;;;;;;15.08;54.90;102527.03;5089468;28;20113;-78
2021/11/19 06:16:59;;;;;;;11.50;7.65;;;;;;;15.07;54.74;102519.84;5080009;28;20135;-79
2021/11/19 06:19:33;;;;;;;13.35;8.30;;;;;;;15.05;54.57;102521.78;5093008;28;20453;-78
2021/11/19 06:22:31;;;;;;;12.90;7.93;;;;;;;15.07;54.67;102528.88;5073061;28;20121;-78
2021/11/19 06:24:58;;;;;;;13.93;8.20;;;;;;;15.06;54.94;102532.63;5050526;28;20056;-78
2021/11/19 06:27:34;;;;;;;13.73;8.63;;;;;;;15.09;55.14;102539.75;5086995;28;20616;-78
2021/11/19 06:30:01;;;;;;;11.32;7.25;;;;;;;15.06;54.79;102540.84;5076098;28;20131;-78
2021/11/19 06:32:28;;;;;;;12.82;7.82;;;;;;;15.06;54.59;102532.63;5093044;28;20044;-78
2021/11/19 06:34:55;;;;;;;14.32;8.55;;;;;;;15.07;54.84;102537.09;5093169;28;20052;-78
2021/11/19 06:37:22;;;;;;;11.77;7.40;;;;;;;15.07;54.70;102537.09;5094457;28;20076;-78
2021/11/19 06:39:49;;;;;;;13.02;8.18;;;;;;;15.09;54.92;102537.00;5092416;28;20522;-78
2021/11/19 06:42:16;;;;;;;13.27;8.57;;;;;;;15.08;54.73;102541.59;5075257;28;20093;-78
2021/11/19 06:44:45;;;;;;;12.88;7.95;;;;;;;15.09;55.14;102539.75;5074848;28;20064;-78
2021/11/19 06:47:13;;;;;;;13.45;8.65;;;;;;;15.09;54.78;102539.75;5092385;28;20127;-78
2021/11/19 06:49:40;;;;;;;13.68;7.95;;;;;;;15.10;54.68;102541.50;5080906;28;20514;-78
2021/11/19 06:52:07;;;;;;;13.27;7.68;;;;;;;15.09;54.72;102545.22;5085439;28;20502;-78
2021/11/19 06:54:36;;;;;;;13.27;7.82;;;;;;;15.11;54.58;102548.75;5088278;28;20060;-78
2021/11/19 06:57:04;;;;;;;13.23;7.93;;;;;;;15.10;54.77;102547.88;5088440;28;20080;-78
2021/11/19 06:59:38;;;;;;;13.40;7.50;;;;;;;15.11;55.07;102554.22;5093132;28;20052;-78
2021/11/19 07:02:06;;;;;;;11.93;7.63;;;;;;;15.11;55.15;102546.91;5084814;28;20048;-78
2021/11/19 07:04:33;;;;;;;12.98;8.13;;;;;;;15.12;54.99;102561.47;5092138;28;20502;-78
2021/11/19 07:07:01;;;;;;;13.02;8.00;;;;;;;15.11;54.84;102556.97;5092065;28;20048;-78
2021/11/19 07:09:29;;;;;;;11.45;7.45;;;;;;;15.15;54.97;102569.50;5061735;28;20110;-77
2021/11/19 07:11:59;;;;;;;12.02;7.80;;;;;;;15.13;54.85;102563.22;5077520;28;20098;-77
2021/11/19 07:14:26;;;;;;;11.85;7.80;;;;;;;15.13;55.17;102561.38;5071043;28;20139;-78
2021/11/19 07:16:53;;;;;;;12.00;6.85;;;;;;;15.12;55.03;102570.56;5087896;28;20055;-77
2021/11/19 07:19:22;;;;;;;11.48;6.97;;;;;;;15.12;55.21;102572.41;5091846;28;20510;-77
2021/11/19 07:21:53;;;;;;;13.13;7.43;;;;;;;15.13;55.18;102569.59;5074550;28;20384;-77
2021/11/19 07:24:20;;;;;;;11.23;7.70;;;;;;;15.12;55.18;102565.09;5076753;28;20146;-77
2021/11/19 07:26:47;;;;;;;12.32;7.28;;;;;;;15.14;54.89;102573.22;5072743;28;20129;-77
2021/11/19 07:29:14;;;;;;;10.95;6.90;;;;;;;15.13;55.21;102566.84;5074507;28;20040;-77
2021/11/19 07:31:40;;;;;;;10.98;7.18;;;;;;;15.14;55.17;102581.41;5078225;28;20064;-78
2021/11/19 07:34:07;;;;;;;12.93;7.95;;;;;;;15.14;55.17;102578.69;5087206;28;20059;-77
2021/11/19 07:36:34;;;;;;;11.82;7.15;;;;;;;15.15;55.38;102580.44;5085927;28;20044;-77
2021/11/19 07:39:01;;;;;;;11.75;7.63;;;;;;;15.15;55.36;102583.19;5062065;28;20044;-78
2021/11/19 07:41:27;;;;;;;12.45;7.15;;;;;;;15.15;55.23;102578.56;5070740;28;20043;-78
2021/11/19 07:43:54;;;;;;;11.57;7.40;;;;;;;15.16;55.38;102585.81;5091995;28;20051;-78
2021/11/19 07:46:24;;;;;;;10.88;6.97;;;;;;;15.18;55.06;102586.59;5078565;28;20634;-78
2021/11/19 07:48:52;;;;;;;11.68;7.05;;;;;;;15.16;55.23;102598.59;5095935;28;20051;-78
2021/11/19 07:51:26;;;;;;;11.45;6.90;;;;;;;15.19;55.10;102595.69;5092011;28;20075;-78
2021/11/19 07:53:53;;;;;;;11.70;6.97;;;;;;;15.17;55.20;102598.53;5080936;28;20052;-78
2021/11/19 07:56:29;;;;;;;11.38;7.22;;;;;;;15.18;55.15;102596.66;5098439;28;20048;-78
2021/11/19 07:59:04;;;;;;;9.95;6.53;;;;;;;15.17;55.39;102595.78;5066882;28;20048;-79
2021/11/19 08:01:31;;;;;;;13.48;7.53;;;;;;;15.16;55.10;102595.88;5060353;28;20086;-78
2021/11/19 08:03:58;;;;;;;11.20;7.10;;;;;;;15.16;55.39;102588.53;5084384;28;20511;-78
2021/11/19 08:06:27;;;;;;;11.60;7.15;;;;;;;15.18;55.15;102588.47;5074942;28;20094;-78
2021/11/19 08:08:55;;;;;;;11.18;6.50;;;;;;;15.18;55.48;102580.25;5054839;28;20058;-76
2021/11/19 08:11:21;;;;;;;9.05;5.90;;;;;;;15.18;55.94;102588.47;5078807;28;20494;-77
2021/11/19 08:13:49;;;;;;;12.20;7.03;;;;;;;15.20;56.04;102581.06;5068770;28;20078;-77
2021/11/19 08:16:16;;;;;;;10.90;6.95;;;;;;;15.23;56.08;102583.63;5084760;28;20398;-78
2021/11/19 08:19:01;;;;;;;11.90;7.22;;;;;;;15.28;56.27;102586.94;5071497;28;20052;-77
2021/11/19 08:21:29;;;;;;;11.65;7.30;;;;;;;15.30;55.49;102592.34;5073829;28;20048;-78
2021/11/19 08:24:01;;;;;;;10.77;7.10;;;;;;;15.33;55.96;102590.28;5087052;28;20998;-78
2021/11/19 08:26:39;;;;;;;12.37;7.40;;;;;;;15.33;55.49;102583.94;5089310;28;20040;-77
2021/11/19 08:29:07;;;;;;;10.98;7.57;;;;;;;15.33;55.31;102587.53;5085360;28;20059;-77
2021/11/19 08:31:35;;;;;;;11.23;7.57;;;;;;;15.34;55.36;102577.47;5088259;28;20040;-77
2021/11/19 08:34:02;;;;;;;11.05;7.20;;;;;;;15.34;55.54;102581.09;5082605;28;20041;-78
2021/11/19 08:36:30;;;;;;;11.07;7.18;;;;;;;15.36;55.31;102586.50;5084263;28;20094;-77
2021/11/19 08:38:58;;;;;;;11.48;6.93;;;;;;;15.35;55.60;102590.19;5078376;28;20430;-77
2021/11/19 08:41:25;;;;;;;11.55;7.35;;;;;;;15.34;55.60;102589.31;5086970;28;20047;-77
2021/11/19 08:43:54;;;;;;;11.35;7.35;;;;;;;15.35;55.45;102588.34;5070588;28;20105;-77
2021/11/19 08:46:25;;;;;;;10.45;7.30;;;;;;;15.37;55.28;102588.25;5092765;28;20125;-77
2021/11/19 08:48:52;;;;;;;11.45;7.30;;;;;;;15.34;55.50;102588.44;5098452;28;20097;-77
2021/11/19 08:51:23;;;;;;;11.07;7.15;;;;;;;15.37;55.78;102591.00;5085311;28;20055;-77
2021/11/19 08:53:53;;;;;;;10.98;7.15;;;;;;;15.37;55.04;102588.25;5083011;28;20564;-77
2021/11/19 08:56:33;;;;;;;11.77;7.10;;;;;;;15.34;55.52;102585.69;5094380;28;20047;-77
2021/11/19 08:59:00;;;;;;;10.88;6.75;;;;;;;15.34;55.51;102591.16;5084190;28;20056;-77
2021/11/19 09:01:27;;;;;;;10.80;6.90;;;;;;;15.33;55.44;102593.03;5068934;28;20277;-77
2021/11/19 09:03:54;;;;;;;11.55;6.95;;;;;;;15.32;55.60;102596.72;5091327;28;20042;-77
2021/11/19 09:06:22;;;;;;;11.07;7.22;;;;;;;15.35;55.39;102595.66;5090146;28;20487;-76
2021/11/19 09:08:50;;;;;;;9.98;6.70;;;;;;;15.34;55.24;102594.78;5091347;28;20543;-78
2021/11/19 09:11:20;;;;;;;12.40;7.57;;;;;;;15.35;55.56;102590.19;5088408;28;20067;-78
2021/11/19 09:13:50;;;;;;;10.90;7.35;;;;;;;15.34;55.66;102597.53;5095564;28;20105;-77
2021/11/19 09:16:19;;;;;;;11.00;7.10;;;;;;;15.34;55.68;102583.84;5068302;28;20055;-77
2021/11/19 09:18:46;;;;;;;12.07;7.15;;;;;;;15.33;55.25;102589.41;5070599;28;20079;-77
2021/11/19 09:21:43;;;;;;;11.27;6.82;;;;;;;15.31;56.16;102584.03;5071338;28;20511;-77
2021/11/19 09:24:22;;;;;;;11.02;6.78;;;;;;;15.34;55.87;102596.66;5089252;28;20307;-77
2021/11/19 09:26:59;;;;;;;11.93;7.18;;;;;;;15.37;56.06;102597.34;5101865;28;20078;-77
2021/11/19 09:29:43;;;;;;;10.70;6.47;;;;;;;15.35;55.86;102592.94;5075876;28;20059;-77
2021/11/19 09:32:11;;;;;;;12.13;7.35;;;;;;;15.33;55.31;102595.75;5087969;28;20052;-77
2021/11/19 09:34:42;;;;;;;11.40;6.93;;;;;;;15.35;55.84;102595.66;5072235;28;20149;-77
2021/11/19 09:37:11;;;;;;;12.40;7.43;;;;;;;15.36;55.83;102602.91;5085595;28;20051;-77
2021/11/19 09:39:40;;;;;;;12.55;6.88;;;;;;;15.37;55.84;102604.69;5087172;28;20063;-77
2021/11/19 09:42:31;;;;;;;10.38;6.80;;;;;;;15.36;56.10;102606.53;5083308;28;20499;-77
2021/11/19 09:45:13;;;;;;;11.73;7.22;;;;;;;15.34;56.06;102603.00;5069964;28;20071;-77
2021/11/19 09:47:54;;;;;;;10.60;6.85;;;;;;;15.36;56.18;102605.66;5067822;28;20556;-77
2021/11/19 09:50:59;;;;;;;11.20;7.45;;;;;;;15.37;55.80;102600.09;5070873;28;20131;-77
2021/11/19 09:54:03;;;;;;;11.82;6.88;;;;;;;15.37;56.06;102599.22;5076369;28;20052;-77
2021/11/19 09:56:55;;;;;;;10.85;6.65;;;;;;;15.35;55.83;102593.81;5095054;28;20040;-77
2021/11/19 09:59:28;;;;;;;10.05;5.95;;;;;;;15.35;55.81;102598.41;5047639;28;20060;-77
2021/11/19 10:02:16;;;;;;;11.93;7.18;;;;;;;15.40;55.82;102607.25;5088764;28;20090;-78
2021/11/19 10:05:12;;;;;;;11.02;7.13;;;;;;;15.40;56.18;102610.84;5087917;28;20053;-77
2021/11/19 10:07:42;;;;;;;10.40;6.75;;;;;;;15.40;56.12;102599.03;5089904;28;20476;-77
2021/11/19 10:10:27;;;;;;;11.85;7.50;;;;;;;15.41;55.95;102600.78;5090142;28;20056;-78
2021/11/19 10:13:27;;;;;;;10.20;6.57;;;;;;;15.39;55.87;102603.63;5085011;28;20056;-78
2021/11/19 10:16:07;;;;;;;11.02;6.75;;;;;;;15.44;56.04;102615.19;5087581;28;20452;-78
2021/11/19 10:18:45;;;;;;;11.32;6.65;;;;;;;15.46;56.46;102615.09;5060363;28;20052;-78
2021/11/19 10:22:04;;;;;;;10.20;6.35;;;;;;;15.42;56.43;102608.91;5089158;28;20391;-77
2021/11/19 10:24:44;;;;;;;9.88;6.45;;;;;;;15.47;56.25;102611.38;5063691;28;20060;-77
2021/11/19 10:27:17;;;;;;;10.68;6.65;;;;;;;15.49;56.02;102614.88;5087683;28;20105;-77
2021/11/19 10:30:00;;;;;;;11.63;7.30;;;;;;;15.51;56.23;102608.34;5071140;28;20102;-78
2021/11/19 10:32:29;;;;;;;11.05;6.90;;;;;;;15.49;56.25;102610.28;5072274;28;20055;-77
2021/11/19 10:35:11;;;;;;;10.50;6.85;;;;;;;15.53;56.22;102619.22;5082930;28;20114;-77
2021/11/19 10:38:00;;;;;;;13.15;7.25;;;;;;;15.54;56.32;102607.34;5085697;28;20406;-78
2021/11/19 10:41:19;;;;;;;10.52;6.78;;;;;;;15.45;56.27;102611.47;5076262;28;20048;-78
2021/11/19 10:44:08;;;;;;;11.80;7.15;;;;;;;15.53;56.18;102609.19;4981720;28;20054;-78
2021/11/19 10:47:17;;;;;;;9.82;6.25;;;;;;;15.53;56.40;102614.66;5089828;28;20044;-78
2021/11/19 10:50:09;;;;;;;9.70;6.18;;;;;;;15.51;56.44;102610.22;5084610;28;20059;-78
2021/11/19 10:53:10;;;;;;;11.15;6.65;;;;;;;15.52;56.19;102607.38;5089775;28;20457;-78
2021/11/19 10:55:48;;;;;;;9.73;5.97;;;;;;;15.53;56.16;102608.28;5085027;28;20388;-79
2021/11/19 10:58:40;;;;;;;10.07;6.60;;;;;;;15.53;56.21;102614.66;5089868;28;20044;-78
2021/11/19 11:01:51;;;;;;;9.23;5.95;;;;;;;15.56;55.97;102605.41;5086521;28;20075;-78
2021/11/19 11:04:25;;;;;;;12.23;7.03;;;;;;;15.55;56.15;102600.91;5061602;28;20109;-77
2021/11/19 11:07:10;;;;;;;12.15;6.70;;;;;;;15.57;55.73;102612.59;5086665;28;20479;-77
2021/11/19 11:09:58;;;;;;;10.52;6.68;;;;;;;15.58;55.95;102597.94;5078923;28;20510;-78
2021/11/19 11:12:46;;;;;;;11.45;7.40;;;;;;;15.60;56.27;102602.38;5077215;28;20052;-78
2021/11/19 11:15:31;;;;;;;10.75;6.97;;;;;;;15.59;56.44;102605.19;5084624;28;20407;-78
2021/11/19 11:18:15;;;;;;;10.85;6.80;;;;;;;15.60;56.48;102593.28;5061090;28;20040;-78
2021/11/19 11:20:57;;;;;;;11.23;7.07;;;;;;;15.61;56.06;102603.25;5052231;28;20053;-78
2021/11/19 11:23:34;;;;;;;10.75;7.05;;;;;;;15.63;55.94;102601.31;5065973;28;20047;-78
2021/11/19 11:26:00;;;;;;;11.40;6.82;;;;;;;15.62;55.82;102593.19;5097695;28;20059;-77
2021/11/19 11:28:51;;;;;;;10.50;7.05;;;;;;;15.63;56.45;102597.69;5089597;28;20044;-78
2021/11/19 11:31:18;;;;;;;9.70;6.45;;;;;;;15.62;56.32;102596.81;5054805;28;20384;-78
2021/11/19 11:33:58;;;;;;;10.52;7.03;;;;;;;15.67;56.04;102591.91;5085339;28;20056;-78
2021/11/19 11:36:41;;;;;;;10.32;7.10;;;;;;;15.66;56.25;102592.00;5084630;28;20040;-79
2021/11/19 11:39:07;;;;;;;;;;;;;;;15.41;56.42;102598.03;5085448;28;20445;-78
2021/11/19 11:41:46;;;;;;;10.90;6.30;;;;;;;15.66;56.24;102597.47;5085934;28;19947;-79